createdAt,value
2019-02-08T00:01:04.532Z,97148.89
2019-02-08T00:04:02.091Z,97150.14
2019-02-08T00:06:57.582Z,97159.33
2019-02-08T00:09:54.654Z,97151.94
2019-02-08T00:12:50.376Z,97157.01
2019-02-08T00:15:46.713Z,97163.22
2019-02-08T00:18:43.869Z,97157.92
2019-02-08T00:21:39.522Z,97174.61
2019-02-08T00:24:36.002Z,97171.66
2019-02-08T00:27:31.454Z,97172.91
2019-02-08T00:30:31.043Z,97169.30
2019-02-08T00:33:26.591Z,97160.56
2019-02-08T00:36:23.824Z,97168.68
2019-02-08T00:39:20.333Z,97168.19
2019-02-08T00:42:16.064Z,97179.75
2019-02-08T00:45:13.540Z,97182.17
2019-02-08T00:48:08.464Z,97181.41
2019-02-08T00:51:06.210Z,97190.92
2019-02-08T00:54:01.704Z,97190.19
2019-02-08T00:56:58.243Z,97196.06
2019-02-08T00:59:54.952Z,97197.69
2019-02-08T01:02:57.560Z,97194.50
2019-02-08T01:05:53.354Z,97195.44
2019-02-08T01:08:48.198Z,97196.61
2019-02-08T01:11:45.230Z,97201.68
2019-02-08T01:14:40.738Z,97204.56
2019-02-08T01:17:38.684Z,97203.63
2019-02-08T01:20:36.070Z,97211.12
2019-02-08T01:23:41.027Z,97219.48
2019-02-08T01:26:31.266Z,97224.41
2019-02-08T01:29:27.060Z,97218.61
2019-02-08T01:32:25.125Z,97219.86
2019-02-08T01:35:20.547Z,97225.48
2019-02-08T01:38:17.389Z,97225.34
2019-02-08T01:41:12.807Z,97220.35
2019-02-08T01:44:10.524Z,97219.10
2019-02-08T01:47:11.090Z,97222.05
2019-02-08T01:50:12.464Z,97220.35
2019-02-08T01:53:07.994Z,97222.98
2019-02-08T01:56:03.530Z,97222.19
2019-02-08T01:59:00.392Z,97231.73
2019-02-08T02:01:55.832Z,97231.25
2019-02-08T02:04:53.310Z,97231.25
2019-02-08T02:07:49.686Z,97227.84
2019-02-08T02:10:47.732Z,97235.48
2019-02-08T02:13:44.182Z,97240.48
2019-02-08T02:16:39.646Z,97236.97
2019-02-08T02:19:36.440Z,97241.89
2019-02-08T02:22:33.048Z,97238.15
2019-02-08T02:25:29.686Z,97245.47
2019-02-08T02:28:30.878Z,97238.74
2019-02-08T02:31:28.619Z,97244.09
2019-02-08T02:34:24.291Z,97244.70
2019-02-08T02:37:20.022Z,97248.91
2019-02-08T02:40:16.036Z,97243.45
2019-02-08T02:43:12.484Z,97245.57
2019-02-08T02:46:09.090Z,97250.80
2019-02-08T02:49:04.582Z,97249.69
2019-02-08T02:52:02.040Z,97257.98
2019-02-08T02:54:57.686Z,97255.34
2019-02-08T02:57:54.194Z,97255.48
2019-02-08T03:00:55.095Z,97257.98
2019-02-08T03:03:51.648Z,97264.61
2019-02-08T03:06:49.494Z,97259.39
2019-02-08T03:09:44.258Z,97259.39
2019-02-08T03:12:41.746Z,97254.39
2019-02-08T03:15:37.342Z,97253.53
2019-02-08T03:18:34.078Z,97250.81
2019-02-08T03:21:29.376Z,97251.64
2019-02-08T03:24:26.405Z,97255.63
2019-02-08T03:27:22.040Z,97262.36
2019-02-08T03:30:18.622Z,97268.42
2019-02-08T03:33:15.437Z,97267.09
2019-02-08T03:36:11.845Z,97269.52
2019-02-08T03:39:08.513Z,97270.63
2019-02-08T03:42:04.610Z,97272.48
2019-02-08T03:45:00.962Z,97267.64
2019-02-08T03:47:56.670Z,97271.39
2019-02-08T03:50:53.225Z,97274.34
2019-02-08T03:53:50.969Z,97278.16
2019-02-08T03:56:45.728Z,97275.13
2019-02-08T03:59:42.235Z,97276.07
2019-02-08T04:02:38.936Z,97276.22
2019-02-08T04:05:35.459Z,97277.16
2019-02-08T04:08:32.220Z,97274.59
2019-02-08T04:11:28.670Z,97267.02
2019-02-08T04:14:25.228Z,97271.23
2019-02-08T04:17:20.535Z,97272.34
2019-02-08T04:20:16.037Z,97270.94
2019-02-08T04:23:13.822Z,97269.14
2019-02-08T04:26:10.313Z,97273.42
2019-02-08T04:29:07.117Z,97270.61
2019-02-08T04:32:02.275Z,97264.78
2019-02-08T04:34:59.450Z,97269.05
2019-02-08T04:37:54.984Z,97260.80
2019-02-08T04:40:51.416Z,97268.37
2019-02-08T04:43:47.218Z,97262.95
2019-02-08T04:46:43.950Z,97274.99
2019-02-08T04:49:40.401Z,97292.95
2019-02-08T04:52:36.547Z,97301.84
2019-02-08T04:55:33.227Z,97287.33
2019-02-08T04:58:35.362Z,97294.56
2019-02-08T05:01:25.310Z,97296.13
2019-02-08T05:04:21.823Z,97297.67
2019-02-08T05:07:17.372Z,97295.41
2019-02-08T05:10:14.232Z,97292.46
2019-02-08T05:13:09.642Z,97291.37
2019-02-08T05:16:06.368Z,97287.31
2019-02-08T05:19:01.398Z,97293.25
2019-02-08T05:21:57.803Z,97285.91
2019-02-08T05:24:55.258Z,97292.79
2019-02-08T05:27:52.793Z,97285.59
2019-02-08T05:30:51.696Z,97283.09
2019-02-08T05:33:48.701Z,97284.98
2019-02-08T05:36:44.187Z,97281.69
2019-02-08T05:39:40.844Z,97280.13
2019-02-08T05:42:37.700Z,97273.89
2019-02-08T05:45:33.085Z,97279.98
2019-02-08T05:48:30.783Z,97283.09
2019-02-08T05:51:26.503Z,97283.09
2019-02-08T05:54:24.016Z,97289.64
2019-02-08T05:57:18.746Z,97282.16
2019-02-08T06:00:14.613Z,97288.50
2019-02-08T06:03:11.251Z,97292.25
2019-02-08T06:06:07.795Z,97298.01
2019-02-08T06:09:04.155Z,97291.45
2019-02-08T06:12:00.742Z,97302.47
2019-02-08T06:14:58.152Z,97308.15
2019-02-08T06:17:53.660Z,97304.02
2019-02-08T06:20:50.083Z,97293.09
2019-02-08T06:23:46.715Z,97289.64
2019-02-08T06:26:43.271Z,97277.95
2019-02-08T06:29:39.705Z,97290.13
2019-02-08T06:32:35.193Z,97296.38
2019-02-08T06:35:32.488Z,97293.88
2019-02-08T06:38:29.289Z,97301.19
2019-02-08T06:41:25.775Z,97293.48
2019-02-08T06:44:22.228Z,97303.87
2019-02-08T06:47:17.277Z,97300.43
2019-02-08T06:50:13.807Z,97305.42
2019-02-08T06:53:09.507Z,97300.28
2019-02-08T06:56:07.047Z,97303.39
2019-02-08T06:59:10.729Z,97306.98
2019-02-08T07:02:26.268Z,97311.48
2019-02-08T07:05:33.307Z,97306.50
2019-02-08T07:08:41.684Z,97300.74
2019-02-08T07:11:50.697Z,97301.99
2019-02-08T07:15:08.063Z,97303.70
2019-02-08T07:18:15.723Z,97297.15
2019-02-08T07:21:34.863Z,97299.80
2019-02-08T07:24:56.423Z,97299.94
2019-02-08T07:28:09.225Z,97307.12
2019-02-08T07:31:18.190Z,97309.66
2019-02-08T07:34:34.455Z,97302.80
2019-02-08T07:37:57.766Z,97306.05
2019-02-08T07:41:08.772Z,97303.71
2019-02-08T07:44:22.786Z,97304.51
2019-02-08T07:47:32.109Z,97319.34
2019-02-08T07:50:41.279Z,97316.38
2019-02-08T07:54:02.171Z,97317.61
2019-02-08T07:57:13.377Z,97321.05
2019-02-08T08:00:18.851Z,97322.78
2019-02-08T08:03:30.128Z,97324.48
2019-02-08T08:06:48.153Z,97325.58
2019-02-08T08:10:13.227Z,97316.77
2019-02-08T08:13:17.547Z,97323.00
2019-02-08T08:16:29.011Z,97314.16
2019-02-08T08:19:37.973Z,97311.11
2019-02-08T08:22:48.959Z,97312.30
2019-02-08T08:25:59.565Z,97315.81
2019-02-08T08:29:09.961Z,97311.02
2019-02-08T08:32:11.653Z,97307.58
2019-02-08T08:35:44.224Z,97310.70
2019-02-08T08:39:17.130Z,97299.73
2019-02-08T08:42:39.236Z,97304.00
2019-02-08T08:46:22.260Z,97308.58
2019-02-08T08:49:41.614Z,97309.88
2019-02-08T08:53:14.474Z,97312.76
2019-02-08T08:56:48.071Z,97306.19
2019-02-08T09:00:04.413Z,97303.81
2019-02-08T09:03:39.126Z,97293.63
2019-02-08T09:07:16.654Z,97287.66
2019-02-08T09:10:40.586Z,97290.59
2019-02-08T09:14:02.415Z,97285.84
2019-02-08T09:17:24.317Z,97287.52
2019-02-08T09:20:59.962Z,97282.28
2019-02-08T09:24:24.260Z,97281.45
2019-02-08T09:28:02.769Z,97279.39
2019-02-08T09:31:45.257Z,97275.79
2019-02-08T09:34:55.749Z,97280.16
2019-02-08T09:38:22.581Z,97261.94
2019-02-08T09:41:44.360Z,97269.73
2019-02-08T09:45:05.875Z,97260.16
2019-02-08T09:48:35.876Z,97252.47
2019-02-08T09:51:55.529Z,97258.53
2019-02-08T09:55:24.586Z,97264.59
2019-02-08T09:58:48.981Z,97263.20
2019-02-08T10:02:16.484Z,97268.66
2019-02-08T10:05:51.746Z,97266.55
2019-02-08T10:09:19.652Z,97270.64
2019-02-08T10:12:59.204Z,97271.30
2019-02-08T10:16:33.668Z,97269.83
2019-02-08T10:19:58.688Z,97274.56
2019-02-08T10:23:36.127Z,97262.34
2019-02-08T10:27:28.226Z,97259.89
2019-02-08T10:31:07.923Z,97259.28
2019-02-08T10:34:26.571Z,97258.67
2019-02-08T10:38:03.010Z,97258.56
2019-02-08T10:41:33.533Z,97248.30
2019-02-08T10:45:06.472Z,97239.23
2019-02-08T10:48:43.386Z,97238.06
2019-02-08T10:52:02.734Z,97239.33
2019-02-08T10:55:52.187Z,97241.22
2019-02-08T10:59:38.807Z,97233.30
2019-02-08T11:03:24.402Z,97231.91
2019-02-08T11:07:02.588Z,97233.63
2019-02-08T11:10:23.327Z,97230.31
2019-02-08T11:13:52.196Z,97222.20
2019-02-08T11:17:11.559Z,97230.61
2019-02-08T11:20:03.968Z,97223.03
2019-02-08T11:23:00.752Z,97217.97
2019-02-08T11:25:57.290Z,97212.94
2019-02-08T11:28:53.860Z,97203.36
2019-02-08T11:31:50.382Z,97205.40
2019-02-08T11:34:46.946Z,97204.05
2019-02-08T11:37:42.656Z,97200.08
2019-02-08T11:40:40.962Z,97192.23
2019-02-08T11:43:36.560Z,97191.87
2019-02-08T11:46:33.029Z,97184.08
2019-02-08T11:49:29.476Z,97178.80
2019-02-08T11:52:26.028Z,97182.22
2019-02-08T11:55:22.049Z,97185.42
2019-02-08T11:58:18.728Z,97182.22
2019-02-08T12:01:16.444Z,97174.67
2019-02-08T12:04:11.864Z,97170.16
2019-02-08T12:07:08.353Z,97164.02
2019-02-08T12:10:04.821Z,97164.84
2019-02-08T12:13:01.076Z,97163.36
2019-02-08T12:15:56.487Z,97158.80
2019-02-08T12:18:52.290Z,97153.95
2019-02-08T12:21:48.686Z,97152.44
2019-02-08T12:24:46.274Z,97151.66
2019-02-08T12:27:42.574Z,97140.90
2019-02-08T12:30:46.385Z,97137.13
2019-02-08T12:33:43.011Z,97140.94
2019-02-08T12:36:39.656Z,97127.50
2019-02-08T12:39:36.131Z,97124.16
2019-02-08T12:42:31.583Z,97118.48
2019-02-08T12:45:28.114Z,97115.05
2019-02-08T12:48:23.452Z,97104.50
2019-02-08T12:51:20.920Z,97104.54
2019-02-08T12:54:16.640Z,97106.23
2019-02-08T12:57:13.151Z,97098.25
2019-02-08T13:00:10.654Z,97094.91
2019-02-08T13:03:07.166Z,97087.92
2019-02-08T13:06:03.268Z,97083.88
2019-02-08T13:08:59.752Z,97075.27
2019-02-08T13:11:56.274Z,97073.02
2019-02-08T13:14:50.626Z,97065.83
2019-02-08T13:17:47.355Z,97066.27
2019-02-08T13:20:45.139Z,97067.91
2019-02-08T13:23:41.704Z,97058.00
2019-02-08T13:26:38.419Z,97053.80
2019-02-08T13:29:42.213Z,97040.94
2019-02-08T13:32:38.684Z,97044.44
2019-02-08T13:35:38.588Z,97038.97
2019-02-08T13:38:35.426Z,97029.05
2019-02-08T13:41:30.847Z,97038.45
2019-02-08T13:44:26.963Z,97029.02
2019-02-08T13:47:23.013Z,97028.03
2019-02-08T13:50:19.479Z,97029.53
2019-02-08T13:53:15.973Z,97029.41
2019-02-08T13:56:17.537Z,97028.16
2019-02-08T13:59:14.340Z,97022.97
2019-02-08T14:02:10.978Z,97023.16
2019-02-08T14:05:14.085Z,97024.88
2019-02-08T14:08:11.676Z,97022.84
2019-02-08T14:11:08.516Z,97019.17
2019-02-08T14:14:05.287Z,97018.03
2019-02-08T14:17:01.114Z,97018.46
2019-02-08T14:19:58.343Z,97018.50
2019-02-08T14:22:55.529Z,97011.02
2019-02-08T14:25:52.079Z,97001.14
2019-02-08T14:28:48.647Z,96998.87
2019-02-08T14:31:45.257Z,96999.70
2019-02-08T14:34:43.664Z,96998.05
2019-02-08T14:37:38.531Z,96994.56
2019-02-08T14:40:35.408Z,96988.55
2019-02-08T14:43:32.071Z,96991.70
2019-02-08T14:46:27.707Z,96983.25
2019-02-08T14:49:23.583Z,96976.49
2019-02-08T14:52:19.999Z,96972.72
2019-02-08T14:55:16.586Z,96964.88
2019-02-08T14:58:12.063Z,96960.38
2019-02-08T15:01:08.835Z,96956.68
2019-02-08T15:04:04.610Z,96947.08
2019-02-08T15:07:13.772Z,96948.26
2019-02-08T15:10:14.424Z,96943.22
2019-02-08T15:13:12.140Z,96936.39
2019-02-08T15:16:07.687Z,96930.28
2019-02-08T15:19:04.063Z,96927.76
2019-02-08T15:22:01.832Z,96923.63
2019-02-08T15:24:56.901Z,96919.48
2019-02-08T15:27:53.941Z,96923.19
2019-02-08T15:30:50.273Z,96920.13
2019-02-08T15:33:46.724Z,96916.53
2019-02-08T15:36:49.167Z,96915.27
2019-02-08T15:39:40.045Z,96911.98
2019-02-08T15:42:37.733Z,96906.22
2019-02-08T15:45:36.843Z,96905.95
2019-02-08T15:48:34.339Z,96908.20
2019-02-08T15:51:29.907Z,96906.23
2019-02-08T15:54:26.096Z,96902.19
2019-02-08T15:57:21.573Z,96893.06
2019-02-08T16:00:18.347Z,96888.97
2019-02-08T16:03:15.029Z,96891.63
2019-02-08T16:06:11.535Z,96887.23
2019-02-08T16:09:06.936Z,96881.04
2019-02-08T16:12:03.230Z,96878.23
2019-02-08T16:14:59.898Z,96881.23
2019-02-08T16:17:55.263Z,96884.27
2019-02-08T16:20:51.893Z,96869.25
2019-02-08T16:23:48.399Z,96871.02
2019-02-08T16:26:45.010Z,96870.70
2019-02-08T16:29:43.810Z,96862.09
2019-02-08T16:32:41.385Z,96851.92
2019-02-08T16:35:37.865Z,96842.91
2019-02-08T16:38:33.402Z,96854.11
2019-02-08T16:41:29.928Z,96841.25
2019-02-08T16:44:26.449Z,96839.53
2019-02-08T16:47:22.995Z,96844.23
2019-02-08T16:50:18.530Z,96845.16
2019-02-08T16:53:16.272Z,96843.19
2019-02-08T16:56:12.772Z,96834.86
2019-02-08T16:59:20.806Z,96843.43
2019-02-08T17:02:28.027Z,96840.69
2019-02-08T17:05:24.902Z,96840.64
2019-02-08T17:08:20.627Z,96842.05
2019-02-08T17:11:17.200Z,96837.16
2019-02-08T17:14:14.704Z,96833.06
2019-02-08T17:17:10.459Z,96827.81
2019-02-08T17:20:11.065Z,96832.61
2019-02-08T17:23:08.788Z,96827.25
2019-02-08T17:26:08.932Z,96833.27
2019-02-08T17:29:03.849Z,96841.73
2019-02-08T17:32:01.412Z,96855.08
2019-02-08T17:34:56.912Z,96856.19
2019-02-08T17:37:53.426Z,96852.28
2019-02-08T17:40:50.120Z,96850.53
2019-02-08T17:43:46.696Z,96845.16
2019-02-08T17:46:43.580Z,96842.39
2019-02-08T17:49:39.098Z,96843.52
2019-02-08T17:52:36.002Z,96842.16
2019-02-08T17:55:33.769Z,96831.08
2019-02-08T17:58:31.544Z,96828.47
2019-02-08T18:01:27.471Z,96824.59
2019-02-08T18:04:24.016Z,96824.13
2019-02-08T18:07:27.797Z,96827.75
2019-02-08T18:10:22.862Z,96822.64
2019-02-08T18:13:19.620Z,96816.17
2019-02-08T18:16:15.375Z,96816.06
2019-02-08T18:19:12.273Z,96817.91
2019-02-08T18:22:08.070Z,96825.40
2019-02-08T18:25:06.649Z,96817.19
2019-02-08T18:28:02.348Z,96817.19
2019-02-08T18:30:59.059Z,96824.41
2019-02-08T18:33:55.656Z,96811.80
2019-02-08T18:36:51.401Z,96799.30
2019-02-08T18:39:48.041Z,96803.44
2019-02-08T18:42:43.734Z,96805.16
2019-02-08T18:45:42.551Z,96809.95
2019-02-08T18:48:39.237Z,96804.70
2019-02-08T18:51:35.661Z,96802.05
2019-02-08T18:54:31.171Z,96791.66
2019-02-08T18:57:28.030Z,96791.03
2019-02-08T19:00:24.631Z,96790.38
2019-02-08T19:03:21.210Z,96781.73
2019-02-08T19:06:17.762Z,96779.23
2019-02-08T19:09:14.341Z,96776.62
2019-02-08T19:12:10.968Z,96779.82
2019-02-08T19:18:56.047Z,96767.21
2019-02-08T19:21:52.682Z,96770.35
2019-02-08T19:24:49.659Z,96764.44
2019-02-08T19:27:46.369Z,96767.73
2019-02-08T19:30:45.210Z,96759.20
2019-02-08T19:33:45.854Z,96744.54
2019-02-08T19:36:51.124Z,96736.25
2019-02-08T19:39:46.997Z,96732.19
2019-02-08T19:42:43.690Z,96728.59
2019-02-08T19:45:40.294Z,96724.17
2019-02-08T19:48:38.101Z,96734.88
2019-02-08T19:51:33.731Z,96736.73
2019-02-08T19:54:30.373Z,96737.53
2019-02-08T19:57:26.543Z,96739.75
2019-02-08T20:00:24.185Z,96739.09
2019-02-08T20:03:31.375Z,96725.95
2019-02-08T20:06:34.348Z,96720.95
2019-02-08T20:09:32.053Z,96714.39
2019-02-08T20:12:27.768Z,96725.30
2019-02-08T20:15:25.949Z,96725.09
2019-02-08T20:18:23.061Z,96725.49
2019-02-08T20:21:18.880Z,96724.52
2019-02-08T20:24:15.947Z,96720.90
2019-02-08T20:27:12.606Z,96712.27
2019-02-08T20:30:09.280Z,96718.34
2019-02-08T20:33:05.234Z,96712.37
2019-02-08T20:36:02.550Z,96713.41
2019-02-08T20:38:58.878Z,96715.51
2019-02-08T20:41:56.372Z,96716.42
2019-02-08T20:44:52.090Z,96715.96
2019-02-08T20:47:49.805Z,96704.92
2019-02-08T20:50:47.485Z,96705.25
2019-02-08T20:53:43.050Z,96710.13
2019-02-08T20:56:40.701Z,96719.38
2019-02-08T20:59:36.058Z,96713.78
2019-02-08T21:02:32.865Z,96710.84
2019-02-08T21:05:28.754Z,96707.54
2019-02-08T21:08:26.543Z,96696.63
2019-02-08T21:11:23.924Z,96700.06
2019-02-08T21:14:19.531Z,96686.66
2019-02-08T21:17:17.367Z,96698.81
2019-02-08T21:20:14.313Z,96699.29
2019-02-08T21:23:10.938Z,96696.58
2019-02-08T21:26:05.972Z,96701.56
2019-02-08T21:29:02.727Z,96691.52
2019-02-08T21:31:58.155Z,96690.59
2019-02-08T21:34:54.826Z,96692.10
2019-02-08T21:37:51.443Z,96689.80
2019-02-08T21:40:48.062Z,96685.94
2019-02-08T21:43:48.744Z,96688.33
2019-02-08T21:46:53.294Z,96676.66
2019-02-08T21:49:55.784Z,96674.05
2019-02-08T21:52:51.368Z,96670.63
2019-02-08T21:55:47.891Z,96669.70
2019-02-08T21:58:43.668Z,96676.25
2019-02-08T22:01:41.447Z,96672.83
2019-02-08T22:04:36.230Z,96676.13
2019-02-08T22:07:33.007Z,96660.08
2019-02-08T22:10:28.482Z,96664.30
2019-02-08T22:13:24.779Z,96660.88
2019-02-08T22:16:27.214Z,96659.19
2019-02-08T22:19:22.788Z,96651.70
2019-02-08T22:22:29.580Z,96641.31
2019-02-08T22:25:25.306Z,96642.63
2019-02-08T22:28:22.868Z,96631.87
2019-02-08T22:31:18.482Z,96641.21
2019-02-08T22:34:15.144Z,96639.48
2019-02-08T22:37:10.958Z,96634.82
2019-02-08T22:40:07.750Z,96631.87
2019-02-08T22:43:04.361Z,96636.06
2019-02-08T22:46:01.073Z,96623.92
2019-02-08T22:48:57.796Z,96623.92
2019-02-08T22:51:53.353Z,96623.47
2019-02-08T22:54:49.986Z,96608.52
2019-02-08T22:57:45.874Z,96610.08
2019-02-08T23:01:18.102Z,96613.76
2019-02-08T23:04:14.477Z,96615.59
2019-02-08T23:07:24.356Z,96607.18
2019-02-08T23:10:23.861Z,96601.27
2019-02-08T23:13:19.411Z,96597.08
2019-02-08T23:16:17.789Z,96585.39
2019-02-08T23:19:15.416Z,96582.12
2019-02-08T23:22:11.172Z,96584.62
2019-02-08T23:25:07.726Z,96576.66
2019-02-08T23:28:04.615Z,96568.61
2019-02-08T23:31:01.388Z,96571.75
2019-02-08T23:33:56.230Z,96572.55
2019-02-08T23:36:52.820Z,96549.77
2019-02-08T23:39:49.029Z,96553.85
2019-02-08T23:42:45.809Z,96548.52
2019-02-08T23:45:43.330Z,96547.87
2019-02-08T23:48:39.949Z,96531.67
2019-02-08T23:51:36.667Z,96541.39
2019-02-08T23:54:31.296Z,96529.70
2019-02-08T23:57:31.101Z,96523.08
